Central Virginia Flyers


Central Virginia Flyers is a 10 member flying club based in Richmond, VA at Hanover County Airport (KOFP). We own N787AT, a 1977 Cessna 172 with 180hp conversion. If you are interested in membership, please contact Brenton at [email protected]


Aviation Digital Data Service (ADDS)

Output produced by METARs form (0806 UTC 04 December 2016)
found at http://aviationweather.gov/adds/metars/
 
KOFP 040754Z AUTO 00000KT 10SM CLR M01/M03 A3030 RMK AO2 SLP261 T10111028
KRIC 040554Z 33004KT 10SM CLR 02/M03 A3030 RMK AO2 SLP265 T00221028 10061 20022 51005
KRIC 040542Z 0406/0506 34004KT P6SM BKN250 
     FM050000 VRB03KT P6SM -RA SCT040 OVC060 
     FM050400 VRB03KT 4SM -RA BR OVC025